createdAt,value
2023-05-17T00:00:54.788Z,1.73
2023-05-17T00:01:57.182Z,3.00
2023-05-17T00:02:59.626Z,2.80
2023-05-17T00:04:01.999Z,2.23
2023-05-17T00:05:04.981Z,3.07
2023-05-17T00:06:07.506Z,1.87
2023-05-17T00:07:09.925Z,2.40
2023-05-17T00:08:12.341Z,2.20
2023-05-17T00:09:14.665Z,2.53
2023-05-17T00:10:17.325Z,2.47
2023-05-17T00:11:19.594Z,3.37
2023-05-17T00:12:21.954Z,2.00
2023-05-17T00:13:24.295Z,3.70
2023-05-17T00:14:26.690Z,2.10
2023-05-17T00:15:29.179Z,4.50
2023-05-17T00:16:31.661Z,1.90
2023-05-17T00:17:34.055Z,3.87
2023-05-17T00:18:36.674Z,3.90
2023-05-17T00:19:39.106Z,2.17
2023-05-17T00:20:41.727Z,3.33
2023-05-17T00:21:44.569Z,2.23
2023-05-17T00:22:47.549Z,2.90
2023-05-17T00:23:49.929Z,2.53
2023-05-17T00:24:52.237Z,3.47
2023-05-17T00:25:54.486Z,1.57
2023-05-17T00:26:56.792Z,2.80
2023-05-17T00:27:59.151Z,3.87
2023-05-17T00:29:03.977Z,3.37
2023-05-17T00:30:08.809Z,2.33
2023-05-17T00:31:12.485Z,2.30
2023-05-17T00:32:14.955Z,1.97
2023-05-17T00:33:17.265Z,2.47
2023-05-17T00:34:19.830Z,2.40
2023-05-17T00:35:22.453Z,3.33
2023-05-17T00:36:25.150Z,2.23
2023-05-17T00:37:27.406Z,4.63
2023-05-17T00:38:29.972Z,5.67
2023-05-17T00:39:32.274Z,3.37
2023-05-17T00:40:34.612Z,1.90
2023-05-17T00:41:36.925Z,3.10
2023-05-17T00:42:39.330Z,1.97
2023-05-17T00:43:41.807Z,3.20
2023-05-17T00:44:45.374Z,3.00
2023-05-17T00:45:49.570Z,3.60
2023-05-17T00:46:51.940Z,4.33
2023-05-17T00:47:54.381Z,3.07
2023-05-17T00:48:56.930Z,3.63
2023-05-17T00:49:59.442Z,3.07
2023-05-17T00:51:02.002Z,2.40
2023-05-17T00:52:04.638Z,2.60
2023-05-17T00:53:07.383Z,4.70
2023-05-17T00:54:09.668Z,2.33
2023-05-17T00:55:12.208Z,2.23
2023-05-17T00:56:14.798Z,3.83
2023-05-17T00:57:17.312Z,2.67
2023-05-17T00:58:19.658Z,5.10
2023-05-17T00:59:23.462Z,2.87
2023-05-17T01:00:26.058Z,2.63
2023-05-17T01:01:28.449Z,1.67
2023-05-17T01:02:31.000Z,2.87
2023-05-17T01:03:33.489Z,3.00
2023-05-17T01:04:36.723Z,2.47
2023-05-17T01:05:39.268Z,2.83
2023-05-17T01:06:42.004Z,2.40
2023-05-17T01:07:44.360Z,2.70
2023-05-17T01:08:46.732Z,2.93
2023-05-17T01:09:49.370Z,4.10
2023-05-17T01:11:39.343Z,1.93
2023-05-17T01:12:55.885Z,2.10
2023-05-17T01:14:09.843Z,3.30
2023-05-17T01:15:18.399Z,3.27
2023-05-17T01:17:05.418Z,4.43
2023-05-17T01:18:23.931Z,5.13
2023-05-17T01:19:28.925Z,2.23
2023-05-17T01:20:38.355Z,2.87
2023-05-17T01:21:49.394Z,3.37
2023-05-17T01:23:07.611Z,3.00
2023-05-17T01:24:30.515Z,3.40
2023-05-17T01:25:50.152Z,3.87
2023-05-17T01:26:55.163Z,2.57
2023-05-17T01:28:02.420Z,3.43
2023-05-17T01:29:06.315Z,2.23
2023-05-17T01:30:12.189Z,2.87
2023-05-17T01:31:15.011Z,2.53
2023-05-17T01:32:18.278Z,2.03
2023-05-17T01:33:21.395Z,2.40
2023-05-17T01:34:30.446Z,2.87
2023-05-17T01:35:32.734Z,2.80
2023-05-17T01:36:35.636Z,3.03
2023-05-17T01:37:42.543Z,3.20
2023-05-17T01:38:44.843Z,3.03
2023-05-17T01:39:47.469Z,2.27
2023-05-17T01:41:21.079Z,2.43
2023-05-17T01:42:31.314Z,2.50
2023-05-17T01:43:50.741Z,2.70
2023-05-17T01:45:07.846Z,2.77
2023-05-17T01:46:26.839Z,3.40
2023-05-17T01:47:45.901Z,2.50
2023-05-17T01:48:57.190Z,1.87
2023-05-17T01:50:01.084Z,3.77
2023-05-17T01:51:04.716Z,3.10
2023-05-17T01:52:17.439Z,2.73
2023-05-17T01:53:51.351Z,2.53
2023-05-17T01:55:11.154Z,1.93
2023-05-17T01:56:27.370Z,3.03
2023-05-17T01:57:33.860Z,2.97
2023-05-17T01:58:48.827Z,3.27
2023-05-17T01:59:52.553Z,3.53
2023-05-17T02:00:57.136Z,2.63
2023-05-17T02:02:06.452Z,2.27
2023-05-17T02:03:13.023Z,4.37
2023-05-17T02:04:15.507Z,3.53
2023-05-17T02:08:14.518Z,3.07
2023-05-17T02:09:17.245Z,3.80
2023-05-17T02:10:19.706Z,3.57
2023-05-17T02:11:22.074Z,3.13
2023-05-17T02:12:25.582Z,2.80
2023-05-17T02:13:28.186Z,4.47
2023-05-17T02:14:30.635Z,1.80
2023-05-17T02:15:33.071Z,2.93
2023-05-17T02:16:35.757Z,3.43
2023-05-17T02:17:39.869Z,4.63
2023-05-17T02:18:42.360Z,2.23
2023-05-17T02:19:44.970Z,4.70
2023-05-17T02:20:47.578Z,1.93
2023-05-17T02:21:49.919Z,3.40
2023-05-17T02:22:52.297Z,3.00
2023-05-17T02:23:54.619Z,2.67
2023-05-17T02:24:56.995Z,2.83
2023-05-17T02:25:59.345Z,2.83
2023-05-17T02:27:03.928Z,2.60
2023-05-17T02:28:07.352Z,3.20
2023-05-17T02:29:11.430Z,3.57
2023-05-17T02:30:17.146Z,3.70
2023-05-17T02:31:20.328Z,4.47
2023-05-17T02:32:25.041Z,2.70
2023-05-17T02:33:27.930Z,3.77
2023-05-17T02:34:33.370Z,7.33
2023-05-17T02:35:35.764Z,4.00
2023-05-17T02:36:38.176Z,4.93
2023-05-17T02:37:40.645Z,2.03
2023-05-17T02:38:42.992Z,3.07
2023-05-17T02:39:45.339Z,2.23
2023-05-17T02:40:47.750Z,3.20
2023-05-17T02:41:50.045Z,3.87
2023-05-17T02:42:52.452Z,2.07
2023-05-17T02:43:54.819Z,2.50
2023-05-17T02:44:58.163Z,4.10
2023-05-17T02:46:00.614Z,3.20
2023-05-17T02:47:02.962Z,3.53
2023-05-17T02:48:06.256Z,2.53
2023-05-17T02:49:08.624Z,4.10
2023-05-17T02:50:11.142Z,5.13
2023-05-17T02:51:13.537Z,3.87
2023-05-17T02:52:16.594Z,3.77
2023-05-17T02:53:19.523Z,2.80
2023-05-17T02:54:22.243Z,3.30
2023-05-17T02:55:24.723Z,3.77
2023-05-17T02:56:27.061Z,3.03
2023-05-17T02:57:29.529Z,5.10
2023-05-17T02:58:31.920Z,5.33
2023-05-17T02:59:34.247Z,4.70
2023-05-17T03:00:36.589Z,2.70
2023-05-17T03:01:39.061Z,5.37
2023-05-17T03:02:41.508Z,4.37
2023-05-17T03:03:44.101Z,4.57
2023-05-17T03:04:46.930Z,3.83
2023-05-17T03:05:49.302Z,5.37
2023-05-17T03:06:51.633Z,5.20
2023-05-17T03:07:54.188Z,3.33
2023-05-17T03:08:57.043Z,2.87
2023-05-17T03:09:59.389Z,2.83
2023-05-17T03:11:05.300Z,3.67
2023-05-17T03:12:08.424Z,2.93
2023-05-17T03:13:10.735Z,5.37
2023-05-17T03:14:15.080Z,5.23
2023-05-17T03:15:17.563Z,3.10
2023-05-17T03:16:20.951Z,3.33
2023-05-17T03:17:24.692Z,4.20
2023-05-17T03:18:28.941Z,4.30
2023-05-17T03:19:31.417Z,3.57
2023-05-17T03:20:33.943Z,2.90
2023-05-17T03:21:36.352Z,2.63
2023-05-17T03:22:39.390Z,3.77
2023-05-17T03:23:41.763Z,4.00
2023-05-17T03:24:44.125Z,3.97
2023-05-17T03:25:46.522Z,3.53
2023-05-17T03:26:49.084Z,3.60
2023-05-17T03:27:51.565Z,2.63
2023-05-17T03:28:53.946Z,4.00
2023-05-17T03:29:56.389Z,2.53
2023-05-17T03:31:00.810Z,5.67
2023-05-17T03:32:06.956Z,3.70
2023-05-17T03:33:09.435Z,4.53
2023-05-17T03:34:11.875Z,3.50
2023-05-17T03:35:15.147Z,5.67
2023-05-17T03:36:20.575Z,3.83
2023-05-17T03:37:23.046Z,4.40
2023-05-17T03:38:25.696Z,7.17
2023-05-17T03:39:28.056Z,4.40
2023-05-17T03:40:30.399Z,3.37
2023-05-17T03:41:34.095Z,2.80
2023-05-17T03:42:37.333Z,5.53
2023-05-17T03:43:40.418Z,4.63
2023-05-17T03:44:44.669Z,4.77
2023-05-17T03:45:47.829Z,4.70
2023-05-17T03:46:53.090Z,5.70
2023-05-17T03:47:56.527Z,5.20
2023-05-17T03:48:59.546Z,3.90
2023-05-17T03:50:02.127Z,4.77
2023-05-17T03:51:06.266Z,4.20
2023-05-17T03:52:09.299Z,4.20
2023-05-17T03:53:11.776Z,3.37
2023-05-17T03:54:14.448Z,4.13
2023-05-17T03:55:16.836Z,3.60
2023-05-17T03:56:21.413Z,3.87
2023-05-17T03:57:23.873Z,4.93
2023-05-17T03:58:26.401Z,4.47
2023-05-17T03:59:28.727Z,11.00
2023-05-17T04:00:31.103Z,5.73
2023-05-17T04:01:37.746Z,4.80
2023-05-17T04:02:40.344Z,6.53
2023-05-17T04:03:43.228Z,3.60
2023-05-17T04:04:50.678Z,3.70
2023-05-17T04:05:53.899Z,4.03
2023-05-17T04:06:56.289Z,3.80
2023-05-17T04:08:00.208Z,5.40
2023-05-17T04:09:02.604Z,4.53
2023-05-17T04:10:06.025Z,4.33
2023-05-17T04:11:14.107Z,3.80
2023-05-17T04:12:16.831Z,4.47
2023-05-17T04:13:19.726Z,3.70
2023-05-17T04:14:22.684Z,4.00
2023-05-17T04:15:25.380Z,5.93
2023-05-17T04:16:28.124Z,5.73
2023-05-17T04:17:31.379Z,6.97
2023-05-17T04:18:37.617Z,4.47
2023-05-17T04:19:40.099Z,3.97
2023-05-17T04:20:43.099Z,6.77
2023-05-17T04:21:46.162Z,5.27
2023-05-17T04:22:48.690Z,3.33
2023-05-17T04:23:51.754Z,5.33
2023-05-17T04:24:54.090Z,4.10
2023-05-17T04:25:58.304Z,5.53
2023-05-17T04:27:03.252Z,5.23
2023-05-17T04:28:06.160Z,4.60
2023-05-17T04:29:08.572Z,4.47
2023-05-17T04:30:11.227Z,4.80
2023-05-17T04:31:16.911Z,4.87
2023-05-17T04:32:20.354Z,3.60
2023-05-17T04:33:24.507Z,3.47
2023-05-17T04:34:29.203Z,4.23
2023-05-17T04:35:32.230Z,5.00
2023-05-17T04:36:35.377Z,5.03
2023-05-17T04:37:40.659Z,4.70
2023-05-17T04:38:53.231Z,3.97
2023-05-17T04:39:59.550Z,4.47
2023-05-17T04:41:04.910Z,5.30
2023-05-17T04:42:12.187Z,3.73
2023-05-17T04:43:19.089Z,4.80
2023-05-17T04:44:22.313Z,6.50
2023-05-17T04:45:25.306Z,5.07
2023-05-17T04:46:28.056Z,6.23
2023-05-17T04:47:30.561Z,6.47
2023-05-17T04:48:33.399Z,4.53
2023-05-17T04:49:36.367Z,5.17
2023-05-17T04:50:38.753Z,4.30
2023-05-17T04:51:41.171Z,4.17
2023-05-17T04:52:46.003Z,7.07
2023-05-17T04:53:48.423Z,6.23
2023-05-17T04:54:53.318Z,5.30
2023-05-17T04:55:59.994Z,5.77
2023-05-17T04:57:03.880Z,7.73
2023-05-17T04:58:32.094Z,6.37
2023-05-17T04:59:35.670Z,4.33
2023-05-17T05:00:38.269Z,4.93
2023-05-17T05:01:41.809Z,4.50
2023-05-17T05:02:44.436Z,4.50
2023-05-17T05:03:48.405Z,4.17
2023-05-17T05:04:50.780Z,5.03
2023-05-17T05:05:55.975Z,4.87
2023-05-17T05:06:58.914Z,7.80
2023-05-17T05:08:01.474Z,6.03
2023-05-17T05:09:04.560Z,9.07
2023-05-17T05:10:08.829Z,8.50
2023-05-17T05:11:12.002Z,7.03
2023-05-17T05:12:15.691Z,5.07
2023-05-17T05:13:18.742Z,4.63
2023-05-17T05:14:21.064Z,5.87
2023-05-17T05:15:24.426Z,7.90
2023-05-17T05:16:31.391Z,7.90
2023-05-17T05:17:34.241Z,6.60
2023-05-17T05:18:36.997Z,5.57
2023-05-17T05:19:39.767Z,7.63
2023-05-17T05:20:43.695Z,7.60
2023-05-17T05:21:48.089Z,6.77
2023-05-17T05:22:50.573Z,7.40
2023-05-17T05:23:54.372Z,5.87
2023-05-17T05:24:57.286Z,6.20
2023-05-17T05:25:59.642Z,5.43
2023-05-17T05:27:04.430Z,6.77
2023-05-17T05:28:08.695Z,6.63
2023-05-17T05:29:13.825Z,6.97
2023-05-17T05:30:22.676Z,6.70
2023-05-17T05:31:28.495Z,6.97
2023-05-17T05:32:33.615Z,5.73
2023-05-17T05:33:36.905Z,9.67
2023-05-17T05:34:40.247Z,7.00
2023-05-17T05:35:42.634Z,7.13
2023-05-17T05:36:45.361Z,7.30
2023-05-17T05:37:47.997Z,4.73
2023-05-17T05:38:52.913Z,6.70
2023-05-17T05:39:55.312Z,7.87
2023-05-17T05:40:57.713Z,5.47
2023-05-17T05:42:00.203Z,6.40
2023-05-17T05:43:02.624Z,6.93
2023-05-17T05:44:06.375Z,6.37
2023-05-17T05:45:10.262Z,4.90
2023-05-17T05:46:12.603Z,5.57
2023-05-17T05:47:16.037Z,5.30
2023-05-17T05:48:18.530Z,7.73
2023-05-17T05:49:21.164Z,11.00
2023-05-17T05:50:24.135Z,8.83
2023-05-17T05:51:29.672Z,6.73
2023-05-17T05:52:32.357Z,6.80
2023-05-17T05:53:34.759Z,7.90
2023-05-17T05:54:37.236Z,5.83
2023-05-17T05:55:43.117Z,6.30
2023-05-17T05:56:45.999Z,6.17
2023-05-17T05:57:50.160Z,5.00
2023-05-17T05:58:52.655Z,5.70
2023-05-17T05:59:55.078Z,7.57
2023-05-17T06:00:57.675Z,7.00
2023-05-17T06:02:00.219Z,5.77
2023-05-17T06:03:02.584Z,6.73
2023-05-17T06:04:05.292Z,5.93
2023-05-17T06:05:08.468Z,6.35
2023-05-17T06:06:11.449Z,5.45
2023-05-17T06:07:15.215Z,6.38
2023-05-17T06:08:17.681Z,7.93
2023-05-17T06:09:20.025Z,6.65
2023-05-17T06:10:22.505Z,7.38
2023-05-17T06:11:26.636Z,6.30
2023-05-17T06:12:28.947Z,9.02
2023-05-17T06:13:31.309Z,10.10
2023-05-17T06:14:33.690Z,7.30
2023-05-17T06:15:36.211Z,8.63
2023-05-17T06:16:38.694Z,5.80
2023-05-17T06:17:42.198Z,10.05
2023-05-17T06:18:44.603Z,7.40
2023-05-17T06:19:49.658Z,6.55
2023-05-17T06:20:52.109Z,7.43
2023-05-17T06:21:54.515Z,9.07
2023-05-17T06:22:56.900Z,6.07
2023-05-17T06:23:59.234Z,6.20
2023-05-17T06:25:01.879Z,7.20
2023-05-17T06:26:04.229Z,7.55
2023-05-17T06:27:07.591Z,8.32
2023-05-17T06:28:09.966Z,7.35
2023-05-17T06:29:12.412Z,7.43
2023-05-17T06:30:14.966Z,9.10
2023-05-17T06:31:19.085Z,5.00
2023-05-17T06:32:22.766Z,9.57
2023-05-17T06:33:25.340Z,6.55
2023-05-17T06:34:28.110Z,6.07
2023-05-17T06:35:37.510Z,10.75
2023-05-17T06:36:43.074Z,7.78
2023-05-17T06:37:45.768Z,7.18
2023-05-17T06:38:48.119Z,6.07
2023-05-17T06:40:00.209Z,9.93
2023-05-17T06:41:11.802Z,11.13
2023-05-17T06:42:14.359Z,8.90
2023-05-17T06:43:16.782Z,6.88
2023-05-17T06:44:19.115Z,6.72
2023-05-17T06:45:22.020Z,7.00
2023-05-17T06:46:24.381Z,7.20
2023-05-17T06:47:26.795Z,7.72
2023-05-17T06:48:29.443Z,8.35
2023-05-17T06:49:31.803Z,6.18
2023-05-17T06:50:34.134Z,10.73
2023-05-17T06:51:36.462Z,8.80
2023-05-17T06:52:38.853Z,10.77
2023-05-17T06:53:41.237Z,8.63
2023-05-17T06:54:43.622Z,10.23
2023-05-17T06:55:46.010Z,7.25
2023-05-17T06:56:48.308Z,7.55
2023-05-17T06:57:50.888Z,7.97
2023-05-17T06:58:53.208Z,6.80
2023-05-17T06:59:55.629Z,7.15
2023-05-17T07:00:57.928Z,9.23
2023-05-17T07:02:03.369Z,10.57
2023-05-17T07:03:06.081Z,8.75
2023-05-17T07:04:08.562Z,7.55
2023-05-17T07:05:10.983Z,10.07
2023-05-17T07:06:13.421Z,7.82
2023-05-17T07:07:15.811Z,10.30
2023-05-17T07:08:18.364Z,7.63
2023-05-17T07:09:21.862Z,11.82
2023-05-17T07:10:24.226Z,7.30
2023-05-17T07:11:26.598Z,8.95
2023-05-17T07:12:28.949Z,7.47
2023-05-17T07:13:31.504Z,8.35
2023-05-17T07:14:33.874Z,9.07
2023-05-17T07:15:36.144Z,7.47
2023-05-17T07:16:38.488Z,6.97
2023-05-17T07:17:40.959Z,9.30
2023-05-17T07:18:43.554Z,14.30
2023-05-17T07:19:46.491Z,6.78
2023-05-17T07:20:49.195Z,7.28
2023-05-17T07:21:51.555Z,7.65
2023-05-17T07:22:53.931Z,7.97
2023-05-17T07:23:56.388Z,10.40
2023-05-17T07:24:58.728Z,10.43
2023-05-17T07:26:01.003Z,8.95
2023-05-17T07:27:03.466Z,6.65
2023-05-17T07:28:05.978Z,7.97
2023-05-17T07:29:08.548Z,7.15
2023-05-17T07:30:11.932Z,6.47
2023-05-17T07:31:14.602Z,9.65
2023-05-17T07:32:20.475Z,6.22
2023-05-17T07:33:22.810Z,7.22
2023-05-17T07:34:25.482Z,6.43
2023-05-17T07:35:28.060Z,8.13
2023-05-17T07:36:31.560Z,8.57
2023-05-17T07:37:34.023Z,8.20
2023-05-17T07:38:36.801Z,7.47
2023-05-17T07:39:39.251Z,7.60
2023-05-17T07:40:41.790Z,5.88
2023-05-17T07:41:44.089Z,7.93
2023-05-17T07:42:46.456Z,7.40
2023-05-17T07:43:49.018Z,6.07
2023-05-17T07:44:51.378Z,6.75
2023-05-17T07:45:53.991Z,8.00
2023-05-17T07:46:56.377Z,9.02
2023-05-17T07:47:58.880Z,7.47
2023-05-17T07:49:01.885Z,8.50
2023-05-17T07:50:04.891Z,7.28
2023-05-17T07:51:07.711Z,8.10
2023-05-17T07:52:10.159Z,6.57
2023-05-17T07:53:12.933Z,7.55
2023-05-17T07:54:27.209Z,8.20
2023-05-17T07:55:29.847Z,7.40
2023-05-17T07:56:33.927Z,8.30
2023-05-17T07:57:38.866Z,7.22
2023-05-17T07:58:41.539Z,10.38
2023-05-17T07:59:43.871Z,7.18
2023-05-17T08:00:46.222Z,6.00
2023-05-17T08:01:48.740Z,7.47
2023-05-17T08:02:51.246Z,5.80
2023-05-17T08:03:54.243Z,7.40
2023-05-17T08:04:56.695Z,8.07
2023-05-17T08:05:59.437Z,7.35
2023-05-17T08:07:02.646Z,6.38
2023-05-17T08:08:05.288Z,6.60
2023-05-17T08:09:11.987Z,8.63
2023-05-17T08:10:14.354Z,6.57
2023-05-17T08:11:17.050Z,7.85
2023-05-17T08:12:19.349Z,7.07
2023-05-17T08:13:21.755Z,8.68
2023-05-17T08:14:24.956Z,10.38
2023-05-17T08:15:27.569Z,5.78
2023-05-17T08:16:30.043Z,6.97
2023-05-17T08:17:32.488Z,6.68
2023-05-17T08:18:35.116Z,9.27
2023-05-17T08:19:40.880Z,8.27
2023-05-17T08:20:43.507Z,7.32
2023-05-17T08:21:46.584Z,6.13
2023-05-17T08:22:49.059Z,7.05
2023-05-17T08:23:51.587Z,7.18
2023-05-17T08:24:53.871Z,7.13
2023-05-17T08:25:56.466Z,7.45
2023-05-17T08:26:58.802Z,6.55
2023-05-17T08:28:01.141Z,7.82
2023-05-17T08:29:04.988Z,9.52
2023-05-17T08:30:11.805Z,7.07
2023-05-17T08:31:17.148Z,6.68
2023-05-17T08:32:19.447Z,6.00
2023-05-17T08:33:22.830Z,7.00
2023-05-17T08:34:26.370Z,10.45
2023-05-17T08:35:29.719Z,8.70
2023-05-17T08:36:32.176Z,11.35
2023-05-17T08:37:34.502Z,7.00
2023-05-17T08:38:37.561Z,6.75
2023-05-17T08:39:40.122Z,9.90
2023-05-17T08:40:42.587Z,6.80
2023-05-17T08:41:49.673Z,7.95
2023-05-17T08:42:52.948Z,6.82
2023-05-17T08:43:57.086Z,8.32
2023-05-17T08:45:00.010Z,8.05
2023-05-17T08:46:04.331Z,9.70
2023-05-17T08:47:09.579Z,7.43
2023-05-17T08:48:12.405Z,8.25
2023-05-17T08:49:16.064Z,4.38
2023-05-17T08:50:18.506Z,6.28
2023-05-17T08:51:21.291Z,5.80
2023-05-17T08:52:23.672Z,6.75
2023-05-17T08:53:27.381Z,6.85
2023-05-17T08:54:29.750Z,6.10
2023-05-17T08:55:34.225Z,7.65
2023-05-17T08:56:39.793Z,7.07
2023-05-17T08:57:43.025Z,6.82
2023-05-17T08:59:55.504Z,6.70
2023-05-17T09:01:00.292Z,7.53
2023-05-17T09:02:03.170Z,7.00
2023-05-17T09:03:06.537Z,7.43
2023-05-17T09:04:10.895Z,5.95
2023-05-17T09:05:14.433Z,6.88
2023-05-17T09:06:25.868Z,9.23
2023-05-17T09:07:28.197Z,6.70
2023-05-17T09:08:33.096Z,9.10
2023-05-17T09:09:35.525Z,11.27
2023-05-17T09:10:37.875Z,7.10
2023-05-17T09:11:40.934Z,8.38
2023-05-17T09:12:44.605Z,6.90
2023-05-17T09:13:46.941Z,6.60
2023-05-17T09:14:49.593Z,5.90
2023-05-17T09:15:51.930Z,5.25
2023-05-17T09:17:00.601Z,7.95
2023-05-17T09:18:03.054Z,7.45
2023-05-17T09:19:07.776Z,5.65
2023-05-17T09:20:11.749Z,5.97
2023-05-17T09:21:14.203Z,5.35
2023-05-17T09:22:19.799Z,6.97
2023-05-17T09:23:22.605Z,7.10
2023-05-17T09:24:32.994Z,5.28
2023-05-17T09:25:35.650Z,5.97
2023-05-17T09:26:40.862Z,5.75
2023-05-17T09:27:43.236Z,6.72
2023-05-17T09:28:45.793Z,6.68
2023-05-17T09:29:48.743Z,5.53
2023-05-17T09:30:51.121Z,9.38
2023-05-17T09:31:55.504Z,6.65
2023-05-17T09:32:58.457Z,4.90
2023-05-17T09:34:02.639Z,5.82
2023-05-17T09:35:05.325Z,8.27
2023-05-17T09:36:22.856Z,6.68
2023-05-17T09:37:26.515Z,6.88
2023-05-17T09:38:29.593Z,7.22
2023-05-17T09:39:33.047Z,6.28
2023-05-17T09:40:43.817Z,6.43
2023-05-17T09:41:48.424Z,5.90
2023-05-17T09:42:50.972Z,6.07
2023-05-17T09:43:53.283Z,7.80
2023-05-17T09:45:00.315Z,7.53
2023-05-17T09:46:03.000Z,5.57
2023-05-17T09:47:05.801Z,7.32
2023-05-17T09:48:14.023Z,8.02
2023-05-17T09:49:17.972Z,9.55
2023-05-17T09:50:23.187Z,4.82
2023-05-17T09:51:34.206Z,6.70
2023-05-17T09:52:37.324Z,7.45
2023-05-17T09:53:41.893Z,7.93
2023-05-17T09:54:44.174Z,8.15
2023-05-17T09:55:48.755Z,8.40
2023-05-17T09:56:55.747Z,6.45
2023-05-17T09:58:04.063Z,8.05
2023-05-17T09:59:14.442Z,7.25
2023-05-17T10:00:19.902Z,5.85
2023-05-17T10:01:25.705Z,7.05
2023-05-17T10:02:31.390Z,8.52
2023-05-17T10:03:36.485Z,7.28
2023-05-17T10:04:40.501Z,6.20
2023-05-17T10:05:44.348Z,5.60
2023-05-17T10:06:51.416Z,7.63
2023-05-17T10:07:56.830Z,7.20
2023-05-17T10:09:00.948Z,7.22
2023-05-17T10:10:04.340Z,7.43
2023-05-17T10:11:09.855Z,7.60
2023-05-17T10:12:16.875Z,6.65
2023-05-17T10:13:25.027Z,8.20
2023-05-17T10:14:34.137Z,5.68
2023-05-17T10:15:37.197Z,6.75
2023-05-17T10:16:39.852Z,7.43
2023-05-17T10:17:45.443Z,8.63
2023-05-17T10:18:49.596Z,5.15
2023-05-17T10:19:53.085Z,4.72
2023-05-17T10:20:56.520Z,5.95
2023-05-17T10:22:10.956Z,6.30
2023-05-17T10:23:22.662Z,5.70
2023-05-17T10:24:27.211Z,4.18
2023-05-17T10:25:30.351Z,6.07
2023-05-17T10:26:33.596Z,5.07
2023-05-17T10:27:36.501Z,7.80
2023-05-17T10:28:39.799Z,5.13
2023-05-17T10:29:43.672Z,6.13
2023-05-17T10:30:47.690Z,4.93
2023-05-17T10:31:53.645Z,7.03
2023-05-17T10:32:56.983Z,6.53
2023-05-17T10:34:01.988Z,5.95
2023-05-17T10:35:12.005Z,9.00
2023-05-17T10:36:17.839Z,5.60
2023-05-17T10:37:23.093Z,7.97
2023-05-17T10:38:38.780Z,6.35
2023-05-17T10:39:47.080Z,7.88
2023-05-17T10:40:52.116Z,6.65
2023-05-17T10:42:12.979Z,8.75
2023-05-17T10:43:19.085Z,7.07
2023-05-17T10:44:22.437Z,6.88
2023-05-17T10:45:27.592Z,6.13
2023-05-17T10:46:31.177Z,6.25
2023-05-17T10:47:34.639Z,6.68
2023-05-17T10:48:37.589Z,7.05
2023-05-17T10:49:41.789Z,5.28
2023-05-17T10:50:54.508Z,5.93
2023-05-17T10:52:22.065Z,5.45
2023-05-17T10:53:24.344Z,5.00
2023-05-17T10:54:39.500Z,5.65
2023-05-17T10:55:44.059Z,4.38
2023-05-17T10:56:53.334Z,6.35
2023-05-17T10:58:11.342Z,2.97
2023-05-17T10:59:24.467Z,4.35
2023-05-17T11:00:30.823Z,6.97
2023-05-17T11:02:10.074Z,5.72
2023-05-17T11:03:14.728Z,12.05
2023-05-17T11:04:24.825Z,4.40
2023-05-17T11:05:27.987Z,7.47
2023-05-17T11:06:38.545Z,6.68
2023-05-17T11:07:41.604Z,6.05
2023-05-17T11:08:48.371Z,5.20
2023-05-17T11:10:08.156Z,7.70
2023-05-17T11:11:12.579Z,5.85
2023-05-17T11:12:16.060Z,8.85
2023-05-17T11:13:27.750Z,4.82
2023-05-17T11:14:45.496Z,6.25
2023-05-17T11:16:03.788Z,4.07
2023-05-17T11:17:20.755Z,5.03
2023-05-17T11:18:30.768Z,5.10
2023-05-17T11:19:34.584Z,6.00
2023-05-17T11:20:37.945Z,5.03
2023-05-17T11:21:47.880Z,4.35
2023-05-17T11:22:56.713Z,6.15
2023-05-17T11:24:02.371Z,4.35
2023-05-17T11:25:10.216Z,5.00
2023-05-17T11:26:41.810Z,4.30
2023-05-17T11:27:49.078Z,4.78
2023-05-17T11:29:07.813Z,5.55
2023-05-17T11:30:32.045Z,5.93
2023-05-17T11:31:36.160Z,4.90
2023-05-17T11:32:38.869Z,5.20
2023-05-17T11:33:46.058Z,4.40
2023-05-17T11:34:52.987Z,5.22
2023-05-17T11:35:56.655Z,7.40
2023-05-17T11:36:58.982Z,5.00
2023-05-17T11:38:22.407Z,5.28
2023-05-17T11:39:25.595Z,4.13
2023-05-17T11:40:28.770Z,5.18
2023-05-17T11:41:32.767Z,4.28
2023-05-17T11:42:36.602Z,7.22
2023-05-17T11:43:45.368Z,4.03
2023-05-17T11:44:48.530Z,5.13
2023-05-17T11:45:57.752Z,5.18
2023-05-17T11:47:09.538Z,5.03
2023-05-17T11:48:15.636Z,5.97
2023-05-17T11:49:34.134Z,6.07
2023-05-17T11:50:40.190Z,9.85
2023-05-17T11:51:43.275Z,5.22
2023-05-17T11:52:45.583Z,7.80
2023-05-17T11:53:49.366Z,5.32
2023-05-17T11:54:52.477Z,3.97
2023-05-17T11:55:56.254Z,3.78
2023-05-17T11:57:00.231Z,5.70
2023-05-17T11:58:04.186Z,6.68
2023-05-17T11:59:06.546Z,4.30
2023-05-17T12:00:09.594Z,8.93
2023-05-17T12:01:18.044Z,5.43
2023-05-17T12:02:31.160Z,5.28
2023-05-17T12:03:33.663Z,5.20
2023-05-17T12:04:38.183Z,8.15
2023-05-17T12:05:40.856Z,7.45
2023-05-17T12:06:45.186Z,5.65
2023-05-17T12:07:50.367Z,4.72
2023-05-17T12:08:52.716Z,4.10
2023-05-17T12:09:56.180Z,5.78
2023-05-17T12:10:58.862Z,4.40
2023-05-17T12:12:04.855Z,5.53
2023-05-17T12:13:07.239Z,5.63
2023-05-17T12:14:10.214Z,4.55
2023-05-17T12:15:20.657Z,7.72
2023-05-17T12:16:24.742Z,5.60
2023-05-17T12:17:35.796Z,5.47
2023-05-17T12:18:43.097Z,7.85
2023-05-17T12:19:45.938Z,4.38
2023-05-17T12:20:58.355Z,6.60
2023-05-17T12:22:14.375Z,5.35
2023-05-17T12:23:16.716Z,5.60
2023-05-17T12:24:19.277Z,5.00
2023-05-17T12:25:29.880Z,5.18
2023-05-17T12:26:33.618Z,4.28
2023-05-17T12:27:36.234Z,5.47
2023-05-17T12:28:53.776Z,12.32
2023-05-17T12:29:56.603Z,6.30
2023-05-17T12:31:02.929Z,5.20
2023-05-17T12:32:07.367Z,5.30
2023-05-17T12:33:10.348Z,5.50
2023-05-17T12:34:14.421Z,3.50
2023-05-17T12:35:17.168Z,5.63
2023-05-17T12:36:19.797Z,6.88
2023-05-17T12:37:22.221Z,5.78
2023-05-17T12:38:28.124Z,4.32
2023-05-17T12:39:31.769Z,8.82
2023-05-17T12:40:34.310Z,10.82
2023-05-17T12:41:38.914Z,5.10
2023-05-17T12:42:44.458Z,7.05
2023-05-17T12:43:46.942Z,5.10
2023-05-17T12:44:49.482Z,6.32
2023-05-17T12:45:53.388Z,7.45
2023-05-17T12:46:57.877Z,4.97
2023-05-17T12:48:00.851Z,4.88
2023-05-17T12:49:11.401Z,7.55
2023-05-17T12:50:14.223Z,4.40
2023-05-17T12:51:22.532Z,5.68
2023-05-17T12:52:24.859Z,5.00
2023-05-17T12:53:36.455Z,5.57
2023-05-17T12:54:39.863Z,6.50
2023-05-17T12:55:44.453Z,4.97
2023-05-17T12:56:46.893Z,5.63
2023-05-17T12:57:51.935Z,4.50
2023-05-17T12:59:18.559Z,9.38
2023-05-17T13:00:22.835Z,7.55
2023-05-17T13:01:25.183Z,7.30
2023-05-17T13:02:27.565Z,5.35
2023-05-17T13:03:31.280Z,6.05
2023-05-17T13:04:36.992Z,6.80
2023-05-17T13:05:41.493Z,4.35
2023-05-17T13:06:48.518Z,4.03
2023-05-17T13:07:51.425Z,5.03
2023-05-17T13:09:01.181Z,8.43
2023-05-17T13:10:03.651Z,5.70
2023-05-17T13:11:07.901Z,5.55
2023-05-17T13:12:10.237Z,8.13
2023-05-17T13:13:19.685Z,6.80
2023-05-17T13:14:37.699Z,4.43
2023-05-17T13:15:40.010Z,6.20
2023-05-17T13:16:43.021Z,7.20
2023-05-17T13:17:50.400Z,5.20
2023-05-17T13:18:53.629Z,8.00
2023-05-17T13:19:58.262Z,6.32
2023-05-17T13:21:01.790Z,4.82
2023-05-17T13:22:05.616Z,6.85
2023-05-17T13:23:07.874Z,6.30
2023-05-17T13:24:11.320Z,7.68
2023-05-17T13:25:15.674Z,5.22
2023-05-17T13:26:18.990Z,4.55
2023-05-17T13:27:21.953Z,4.72
2023-05-17T13:28:25.061Z,3.80
2023-05-17T13:29:38.926Z,4.97
2023-05-17T13:30:46.181Z,5.65
2023-05-17T13:31:48.459Z,8.70
2023-05-17T13:32:51.066Z,4.70
2023-05-17T13:33:53.665Z,4.07
2023-05-17T13:34:56.895Z,4.65
2023-05-17T13:35:59.317Z,6.57
2023-05-17T13:37:02.041Z,5.45
2023-05-17T13:38:04.389Z,4.63
2023-05-17T13:39:06.676Z,3.85
2023-05-17T13:40:09.388Z,5.03
2023-05-17T13:41:11.979Z,4.72
2023-05-17T13:42:14.573Z,5.25
2023-05-17T13:43:17.430Z,4.50
2023-05-17T13:44:19.798Z,5.40
2023-05-17T13:45:22.685Z,3.92
2023-05-17T13:46:25.092Z,7.30
2023-05-17T13:47:30.329Z,5.85
2023-05-17T13:48:32.911Z,9.05
2023-05-17T13:49:35.409Z,5.90
2023-05-17T13:50:37.738Z,6.70
2023-05-17T13:51:40.111Z,3.15
2023-05-17T13:52:42.496Z,5.30
2023-05-17T13:53:44.905Z,4.28
2023-05-17T13:54:47.241Z,4.75
2023-05-17T13:55:49.635Z,4.78
2023-05-17T13:56:52.224Z,5.18
2023-05-17T13:57:54.747Z,5.35
2023-05-17T13:58:57.170Z,5.72
2023-05-17T13:59:59.626Z,4.28
2023-05-17T14:01:01.910Z,5.30
2023-05-17T14:02:04.740Z,3.35
2023-05-17T14:03:07.423Z,4.43
2023-05-17T14:04:09.940Z,4.20
2023-05-17T14:05:12.609Z,4.45
2023-05-17T14:06:15.301Z,4.32
2023-05-17T14:07:17.635Z,6.03
2023-05-17T14:08:20.504Z,6.07
2023-05-17T14:09:22.869Z,6.10
2023-05-17T14:10:25.293Z,4.38
2023-05-17T14:11:27.966Z,5.40
2023-05-17T14:12:30.278Z,3.42
2023-05-17T14:13:32.705Z,3.83
2023-05-17T14:14:35.185Z,5.32
2023-05-17T14:15:39.188Z,4.20
2023-05-17T14:16:41.939Z,6.57
2023-05-17T14:17:44.527Z,3.92
2023-05-17T14:18:47.012Z,4.43
2023-05-17T14:19:49.556Z,4.78
2023-05-17T14:20:53.474Z,5.90
2023-05-17T14:21:55.840Z,5.13
2023-05-17T14:22:59.191Z,5.45
2023-05-17T14:24:01.598Z,5.55